createdAt,value
2019-02-21T00:01:25.710Z,2.90
2019-02-21T00:03:54.842Z,2.80
2019-02-21T00:06:23.938Z,2.80
2019-02-21T00:08:53.156Z,2.80
2019-02-21T00:11:22.271Z,2.80
2019-02-21T00:13:51.389Z,2.80
2019-02-21T00:16:20.512Z,2.70
2019-02-21T00:18:49.655Z,2.70
2019-02-21T00:21:18.760Z,2.80
2019-02-21T00:23:47.956Z,2.80
2019-02-21T00:26:17.136Z,2.70
2019-02-21T00:28:46.346Z,2.70
2019-02-21T00:31:15.571Z,2.60
2019-02-21T00:33:44.777Z,2.50
2019-02-21T00:36:13.972Z,2.60
2019-02-21T00:38:43.099Z,2.50
2019-02-21T00:41:12.259Z,2.50
2019-02-21T00:43:41.463Z,2.50
2019-02-21T00:46:10.645Z,2.50
2019-02-21T00:48:39.772Z,2.50
2019-02-21T00:51:10.770Z,2.50
2019-02-21T00:53:39.936Z,2.50
2019-02-21T00:56:09.088Z,2.50
2019-02-21T00:58:38.211Z,2.50
2019-02-21T01:01:07.522Z,2.50
2019-02-21T01:03:36.704Z,2.50
2019-02-21T01:06:05.876Z,2.50
2019-02-21T01:08:35.002Z,2.50
2019-02-21T01:11:04.915Z,2.50
2019-02-21T01:13:34.030Z,2.50
2019-02-21T01:16:03.248Z,2.60
2019-02-21T01:18:32.473Z,2.60
2019-02-21T01:21:01.601Z,2.60
2019-02-21T01:23:30.798Z,2.60
2019-02-21T01:25:59.918Z,2.50
2019-02-21T01:28:29.020Z,2.50
2019-02-21T01:30:58.195Z,2.50
2019-02-21T01:33:27.413Z,2.50
2019-02-21T01:35:56.660Z,2.50
2019-02-21T01:38:25.779Z,2.50
2019-02-21T01:40:54.919Z,2.50
2019-02-21T01:43:24.060Z,2.50
2019-02-21T01:45:53.187Z,2.50
2019-02-21T01:48:22.324Z,2.40
2019-02-21T01:50:51.513Z,2.40
2019-02-21T01:53:20.616Z,2.40
2019-02-21T01:55:49.832Z,2.30
2019-02-21T01:58:18.967Z,2.30
2019-02-21T02:00:48.201Z,2.20
2019-02-21T02:03:17.328Z,2.20
2019-02-21T02:05:46.468Z,2.20
2019-02-21T02:08:15.628Z,2.20
2019-02-21T02:10:44.770Z,2.10
2019-02-21T02:13:24.130Z,2.20
2019-02-21T02:15:44.867Z,2.20
2019-02-21T02:18:14.013Z,2.10
2019-02-21T02:20:43.133Z,2.10
2019-02-21T02:23:12.271Z,2.10
2019-02-21T02:25:41.458Z,2.20
2019-02-21T02:28:10.652Z,2.20
2019-02-21T02:30:39.820Z,2.10
2019-02-21T02:33:08.975Z,2.20
2019-02-21T02:35:38.121Z,2.10
2019-02-21T02:38:07.245Z,2.10
2019-02-21T02:40:36.458Z,2.10
2019-02-21T02:43:05.656Z,2.10
2019-02-21T02:45:34.777Z,2.10
2019-02-21T02:48:03.884Z,2.20
2019-02-21T02:50:33.100Z,2.10
2019-02-21T02:53:02.201Z,2.10
2019-02-21T02:55:31.355Z,2.10
2019-02-21T02:58:00.515Z,2.10
2019-02-21T03:00:29.633Z,2.10
2019-02-21T03:02:58.781Z,2.10
2019-02-21T03:05:27.880Z,2.10
2019-02-21T03:07:57.095Z,2.10
2019-02-21T03:10:26.220Z,2.00
2019-02-21T03:12:56.441Z,2.10
2019-02-21T03:15:25.561Z,2.10
2019-02-21T03:17:54.731Z,2.00
2019-02-21T03:20:23.875Z,2.10
2019-02-21T03:22:53.095Z,2.10
2019-02-21T03:25:22.219Z,2.00
2019-02-21T03:27:51.416Z,2.00
2019-02-21T03:30:20.526Z,2.00
2019-02-21T03:32:49.655Z,1.90
2019-02-21T03:35:18.854Z,1.90
2019-02-21T03:37:48.133Z,1.90
2019-02-21T03:40:17.376Z,1.80
2019-02-21T03:42:46.496Z,1.80
2019-02-21T03:45:15.596Z,1.70
2019-02-21T03:47:44.754Z,1.70
2019-02-21T03:50:13.965Z,1.70
2019-02-21T03:52:43.119Z,1.60
2019-02-21T03:55:12.324Z,1.60
2019-02-21T03:57:41.447Z,1.60
2019-02-21T04:00:10.622Z,1.60
2019-02-21T04:02:42.718Z,1.60
2019-02-21T04:05:11.930Z,1.60
2019-02-21T04:07:41.112Z,1.60
2019-02-21T04:10:10.272Z,1.70
2019-02-21T04:12:39.369Z,1.60
2019-02-21T04:15:09.434Z,1.60
2019-02-21T04:17:38.634Z,1.50
2019-02-21T04:20:07.864Z,1.50
2019-02-21T04:22:37.072Z,1.50
2019-02-21T04:25:06.218Z,1.50
2019-02-21T04:27:35.433Z,1.50
2019-02-21T04:30:04.662Z,1.40
2019-02-21T04:32:33.772Z,1.40
2019-02-21T04:35:02.985Z,1.30
2019-02-21T04:37:32.112Z,1.30
2019-02-21T04:40:01.232Z,1.20
2019-02-21T04:42:30.472Z,1.20
2019-02-21T04:44:59.609Z,1.20
2019-02-21T04:47:28.789Z,1.20
2019-02-21T04:49:57.929Z,1.10
2019-02-21T04:52:27.111Z,1.00
2019-02-21T04:54:56.311Z,1.00
2019-02-21T04:57:25.437Z,1.00
2019-02-21T04:59:54.706Z,0.90
2019-02-21T05:02:28.927Z,0.90
2019-02-21T05:04:54.776Z,0.90
2019-02-21T05:07:23.994Z,0.90
2019-02-21T05:09:57.892Z,0.90
2019-02-21T05:12:24.290Z,0.90
2019-02-21T05:14:53.398Z,0.80
2019-02-21T05:17:22.605Z,0.90
2019-02-21T05:19:51.854Z,0.80
2019-02-21T05:22:21.088Z,0.80
2019-02-21T05:24:50.259Z,0.80
2019-02-21T05:27:23.324Z,0.80
2019-02-21T05:29:52.448Z,0.70
2019-02-21T05:32:41.200Z,0.70
2019-02-21T05:35:18.567Z,0.70
2019-02-21T05:38:07.763Z,0.70
2019-02-21T05:41:14.283Z,0.70
2019-02-21T05:44:08.557Z,0.60
2019-02-21T05:46:56.650Z,0.60
2019-02-21T05:49:34.539Z,0.60
2019-02-21T05:52:11.945Z,0.60
2019-02-21T05:55:04.072Z,0.60
2019-02-21T05:57:39.533Z,0.60
2019-02-21T06:00:30.801Z,0.60
2019-02-21T06:03:31.074Z,0.60
2019-02-21T06:06:37.353Z,0.60
2019-02-21T06:09:25.073Z,0.60
2019-02-21T06:12:03.152Z,0.50
2019-02-21T06:14:45.996Z,0.60
2019-02-21T06:17:25.840Z,0.50
2019-02-21T06:20:02.043Z,0.50
2019-02-21T06:22:54.729Z,0.50
2019-02-21T06:25:51.988Z,0.50
2019-02-21T06:28:27.221Z,0.50
2019-02-21T06:31:00.139Z,0.50
2019-02-21T06:33:29.327Z,0.50
2019-02-21T06:35:58.543Z,0.50
2019-02-21T06:38:27.688Z,0.60
2019-02-21T06:40:56.896Z,0.50
2019-02-21T06:43:25.996Z,0.60
2019-02-21T06:45:57.890Z,0.60
2019-02-21T06:48:26.051Z,0.60
2019-02-21T06:50:55.280Z,0.70
2019-02-21T06:53:24.521Z,0.70
2019-02-21T06:55:53.709Z,0.80
2019-02-21T06:58:22.860Z,0.80
2019-02-21T07:00:52.078Z,0.90
2019-02-21T07:03:21.302Z,0.90
2019-02-21T07:05:50.513Z,1.00
2019-02-21T07:08:19.736Z,1.10
2019-02-21T07:10:48.902Z,1.20
2019-02-21T07:13:26.241Z,1.40
2019-02-21T07:15:48.843Z,1.60
2019-02-21T07:18:17.982Z,1.80
2019-02-21T07:20:47.216Z,2.10
2019-02-21T07:23:16.329Z,2.30
2019-02-21T07:25:47.204Z,2.50
2019-02-21T07:28:16.387Z,2.80
2019-02-21T07:30:45.926Z,3.00
2019-02-21T07:33:27.301Z,3.50
2019-02-21T07:35:46.125Z,3.90
2019-02-21T07:38:17.131Z,4.30
2019-02-21T07:40:46.210Z,4.90
2019-02-21T07:43:15.430Z,5.30
2019-02-21T07:45:44.811Z,5.90
2019-02-21T07:48:14.027Z,6.80
2019-02-21T07:50:43.254Z,7.60
2019-02-21T07:53:12.484Z,8.30
2019-02-21T07:55:41.674Z,9.50
2019-02-21T07:58:10.816Z,10.00
2019-02-21T08:00:39.911Z,10.40
2019-02-21T08:03:09.388Z,10.80
2019-02-21T08:05:38.628Z,11.30
2019-02-21T08:08:09.313Z,12.30
2019-02-21T08:10:38.736Z,13.20
2019-02-21T08:13:07.908Z,13.70
2019-02-21T08:15:37.043Z,14.10
2019-02-21T08:18:06.262Z,14.80
2019-02-21T08:20:40.890Z,15.20
2019-02-21T08:23:07.336Z,15.50
2019-02-21T08:25:37.647Z,15.90
2019-02-21T08:28:06.771Z,16.70
2019-02-21T08:30:36.009Z,16.80
2019-02-21T08:33:10.348Z,16.90
2019-02-21T08:35:39.478Z,16.80
2019-02-21T08:38:08.759Z,16.80
2019-02-21T08:40:37.909Z,17.80
2019-02-21T08:43:07.137Z,17.80
2019-02-21T08:45:36.265Z,18.10
2019-02-21T08:48:05.392Z,18.30
2019-02-21T08:50:34.524Z,17.60
2019-02-21T08:53:03.673Z,18.40
2019-02-21T08:55:32.929Z,18.90
2019-02-21T08:58:02.094Z,19.00
2019-02-21T09:00:31.739Z,19.40
2019-02-21T09:03:01.159Z,19.80
2019-02-21T09:05:30.299Z,19.80
2019-02-21T09:07:59.528Z,20.40
2019-02-21T09:10:28.800Z,19.90
2019-02-21T09:12:59.495Z,20.90
2019-02-21T09:15:28.622Z,21.10
2019-02-21T09:17:57.839Z,21.20
2019-02-21T09:20:27.008Z,20.70
2019-02-21T09:22:56.172Z,20.90
2019-02-21T09:25:25.316Z,21.70
2019-02-21T09:27:54.440Z,21.50
2019-02-21T09:30:23.667Z,21.40
2019-02-21T09:32:52.807Z,21.50
2019-02-21T09:35:21.915Z,22.20
2019-02-21T09:37:51.125Z,21.90
2019-02-21T09:40:20.220Z,21.70
2019-02-21T09:42:49.343Z,21.40
2019-02-21T09:45:18.643Z,21.30
2019-02-21T09:47:47.760Z,21.20
2019-02-21T09:50:16.884Z,20.50
2019-02-21T09:52:46.112Z,20.20
2019-02-21T09:55:16.165Z,20.30
2019-02-21T09:57:45.397Z,20.90
2019-02-21T10:00:16.626Z,21.00
2019-02-21T10:02:45.725Z,20.80
2019-02-21T10:05:14.940Z,21.00
2019-02-21T10:07:44.051Z,20.80
2019-02-21T10:10:15.176Z,20.60
2019-02-21T10:12:44.455Z,22.30
2019-02-21T10:15:13.966Z,22.40
2019-02-21T10:17:43.181Z,22.00
2019-02-21T10:20:17.074Z,22.50
2019-02-21T10:22:46.186Z,22.70
2019-02-21T10:25:17.838Z,22.10
2019-02-21T10:27:47.032Z,21.90
2019-02-21T10:30:17.445Z,22.10
2019-02-21T10:32:46.584Z,22.40
2019-02-21T10:35:15.777Z,21.40
2019-02-21T10:37:44.973Z,21.40
2019-02-21T10:40:14.559Z,21.60
2019-02-21T10:42:43.756Z,21.90
2019-02-21T10:45:14.921Z,22.40
2019-02-21T10:47:44.100Z,22.40
2019-02-21T10:50:15.463Z,23.10
2019-02-21T10:52:44.618Z,23.30
2019-02-21T10:55:13.801Z,23.30
2019-02-21T10:57:45.367Z,21.80
2019-02-21T11:00:22.365Z,20.10
2019-02-21T11:02:51.501Z,21.80
2019-02-21T11:05:20.636Z,22.40
2019-02-21T11:07:49.761Z,23.20
2019-02-21T11:10:21.320Z,23.20
2019-02-21T11:12:50.518Z,22.90
2019-02-21T11:15:19.887Z,20.70
2019-02-21T11:17:49.028Z,22.60
2019-02-21T11:20:18.220Z,22.80
2019-02-21T11:22:47.416Z,22.80
2019-02-21T11:25:16.608Z,22.20
2019-02-21T11:27:45.722Z,22.40
2019-02-21T11:30:16.431Z,23.30
2019-02-21T11:32:45.587Z,23.10
2019-02-21T11:35:15.081Z,22.90
2019-02-21T11:37:46.852Z,22.20
2019-02-21T11:40:15.636Z,19.80
2019-02-21T11:42:46.339Z,20.60
2019-02-21T11:45:15.990Z,21.60
2019-02-21T11:47:45.087Z,21.00
2019-02-21T11:50:15.647Z,21.50
2019-02-21T11:52:44.789Z,21.50
2019-02-21T11:55:16.280Z,22.00
2019-02-21T11:57:45.462Z,21.00
2019-02-21T12:00:17.685Z,21.60
2019-02-21T12:02:46.915Z,20.80
2019-02-21T12:05:17.836Z,21.10
2019-02-21T12:07:46.980Z,19.90
2019-02-21T12:10:16.120Z,19.60
2019-02-21T12:12:45.251Z,21.10
2019-02-21T12:15:14.441Z,20.60
2019-02-21T12:17:43.620Z,19.30
2019-02-21T12:20:13.607Z,20.20
2019-02-21T12:22:42.859Z,19.50
2019-02-21T12:25:13.191Z,20.10
2019-02-21T12:27:42.355Z,19.60
2019-02-21T12:30:16.447Z,20.60
2019-02-21T12:32:45.829Z,20.50
2019-02-21T12:35:15.003Z,20.50
2019-02-21T12:37:44.213Z,20.50
2019-02-21T12:40:16.003Z,20.60
2019-02-21T12:42:45.172Z,21.10
2019-02-21T12:45:16.036Z,21.60
2019-02-21T12:47:50.723Z,21.70
2019-02-21T12:50:16.217Z,21.00
2019-02-21T12:52:45.399Z,21.70
2019-02-21T12:55:26.480Z,22.50
2019-02-21T12:57:45.980Z,22.60
2019-02-21T13:00:16.944Z,22.70
2019-02-21T13:02:46.192Z,22.90
2019-02-21T13:05:15.369Z,23.30
2019-02-21T13:07:44.564Z,23.00
2019-02-21T13:10:15.384Z,22.00
2019-02-21T13:12:44.550Z,22.50
2019-02-21T13:15:14.168Z,21.00
2019-02-21T13:17:43.317Z,20.50
2019-02-21T13:20:12.484Z,20.40
2019-02-21T13:22:41.659Z,19.60
2019-02-21T13:25:11.608Z,18.50
2019-02-21T13:27:40.729Z,18.60
2019-02-21T13:30:12.381Z,17.90
2019-02-21T13:32:41.581Z,17.40
2019-02-21T13:35:10.999Z,18.10
2019-02-21T13:37:40.305Z,17.40
2019-02-21T13:40:11.086Z,17.40
2019-02-21T13:42:40.261Z,17.20
2019-02-21T13:45:09.997Z,17.10
2019-02-21T13:47:39.390Z,16.00
2019-02-21T13:50:11.479Z,16.20
2019-02-21T13:52:40.639Z,16.10
2019-02-21T13:55:09.829Z,16.30
2019-02-21T13:57:38.964Z,16.00
2019-02-21T14:00:10.884Z,16.20
2019-02-21T14:02:39.990Z,16.90
2019-02-21T14:05:09.224Z,17.00
2019-02-21T14:07:38.471Z,17.20
2019-02-21T14:10:08.719Z,16.50
2019-02-21T14:12:37.917Z,16.60
2019-02-21T14:15:09.133Z,17.00
2019-02-21T14:17:38.251Z,17.10
2019-02-21T14:20:07.877Z,17.10
2019-02-21T14:22:37.033Z,17.00
2019-02-21T14:25:06.577Z,16.90
2019-02-21T14:27:35.735Z,17.40
2019-02-21T14:30:05.404Z,17.50
2019-02-21T14:32:35.408Z,17.90
2019-02-21T14:35:06.158Z,18.30
2019-02-21T14:37:35.340Z,18.90
2019-02-21T14:40:04.734Z,18.40
2019-02-21T14:42:33.917Z,17.40
2019-02-21T14:45:03.104Z,17.60
2019-02-21T14:47:32.233Z,17.60
2019-02-21T14:50:01.423Z,17.30
2019-02-21T14:52:30.644Z,16.60
2019-02-21T14:54:59.749Z,16.70
2019-02-21T14:57:40.158Z,16.20
2019-02-21T14:59:59.884Z,16.10
2019-02-21T15:02:29.450Z,16.00
2019-02-21T15:04:58.845Z,15.90
2019-02-21T15:07:28.297Z,15.70
2019-02-21T15:09:57.817Z,15.70
2019-02-21T15:12:27.471Z,15.60
2019-02-21T15:14:57.071Z,15.50
2019-02-21T15:17:26.583Z,15.50
2019-02-21T15:19:56.028Z,15.50
2019-02-21T15:22:25.482Z,15.50
2019-02-21T15:24:54.899Z,15.50
2019-02-21T15:27:24.371Z,15.70
2019-02-21T15:29:53.802Z,15.60
2019-02-21T15:32:23.137Z,15.70
2019-02-21T15:34:52.609Z,16.30
2019-02-21T15:37:21.987Z,16.40
2019-02-21T15:39:51.188Z,16.50
2019-02-21T15:42:20.458Z,16.50
2019-02-21T15:44:49.808Z,16.40
2019-02-21T15:47:19.090Z,16.50
2019-02-21T15:49:48.359Z,16.30
2019-02-21T15:52:22.217Z,16.20
2019-02-21T15:54:48.540Z,16.10
2019-02-21T15:57:17.918Z,16.00
2019-02-21T15:59:47.436Z,15.70
2019-02-21T16:02:16.749Z,14.90
2019-02-21T16:04:46.019Z,15.00
2019-02-21T16:07:15.342Z,14.80
2019-02-21T16:09:44.839Z,14.70
2019-02-21T16:12:14.366Z,14.40
2019-02-21T16:14:43.871Z,14.10
2019-02-21T16:17:13.032Z,14.00
2019-02-21T16:19:42.276Z,13.80
2019-02-21T16:22:11.599Z,13.60
2019-02-21T16:24:40.985Z,13.40
2019-02-21T16:27:10.346Z,13.40
2019-02-21T16:29:39.691Z,13.30
2019-02-21T16:32:09.015Z,13.20
2019-02-21T16:34:38.403Z,13.10
2019-02-21T16:37:07.723Z,13.00
2019-02-21T16:39:37.187Z,12.80
2019-02-21T16:42:06.482Z,12.70
2019-02-21T16:44:35.660Z,12.50
2019-02-21T16:47:05.780Z,12.40
2019-02-21T16:49:35.320Z,12.20
2019-02-21T16:52:04.602Z,12.00
2019-02-21T16:54:33.884Z,11.80
2019-02-21T16:57:03.205Z,11.70
2019-02-21T16:59:32.477Z,11.60
2019-02-21T17:02:01.678Z,11.40
2019-02-21T17:04:30.930Z,11.30
2019-02-21T17:07:00.165Z,11.30
2019-02-21T17:09:29.472Z,11.10
2019-02-21T17:11:58.708Z,11.00
2019-02-21T17:14:28.046Z,10.90
2019-02-21T17:16:57.234Z,10.70
2019-02-21T17:19:26.476Z,10.70
2019-02-21T17:21:55.709Z,10.60
2019-02-21T17:24:24.927Z,10.50
2019-02-21T17:26:57.473Z,10.40
2019-02-21T17:29:26.674Z,10.20
2019-02-21T17:31:55.951Z,10.20
2019-02-21T17:34:25.618Z,10.10
2019-02-21T17:36:54.844Z,10.00
2019-02-21T17:39:24.130Z,9.90
2019-02-21T17:41:53.445Z,9.90
2019-02-21T17:44:22.671Z,9.70
2019-02-21T17:46:51.979Z,9.60
2019-02-21T17:49:21.140Z,9.50
2019-02-21T17:51:50.581Z,9.50
2019-02-21T17:54:20.048Z,9.40
2019-02-21T17:56:49.505Z,9.40
2019-02-21T17:59:18.954Z,9.20
2019-02-21T18:01:48.356Z,9.20
2019-02-21T18:04:17.696Z,9.30
2019-02-21T18:06:47.114Z,9.20
2019-02-21T18:09:25.714Z,9.10
2019-02-21T18:11:55.170Z,9.10
2019-02-21T18:14:24.726Z,9.10
2019-02-21T18:16:54.188Z,9.00
2019-02-21T18:19:23.729Z,9.00
2019-02-21T18:21:59.486Z,9.00
2019-02-21T18:24:29.158Z,9.00
2019-02-21T18:26:58.593Z,9.10
2019-02-21T18:29:28.307Z,9.00
2019-02-21T18:31:57.927Z,9.10
2019-02-21T18:34:33.469Z,9.00
2019-02-21T18:37:02.661Z,9.00
2019-02-21T18:39:39.599Z,9.00
2019-02-21T18:42:09.189Z,9.00
2019-02-21T18:44:38.497Z,8.90
2019-02-21T18:47:07.947Z,9.00
2019-02-21T18:49:37.464Z,9.00
2019-02-21T18:52:07.013Z,8.90
2019-02-21T18:54:36.415Z,8.90
2019-02-21T18:57:05.865Z,8.90
2019-02-21T18:59:35.473Z,8.80
2019-02-21T19:02:04.812Z,8.80
2019-02-21T19:04:34.034Z,8.70
2019-02-21T19:07:03.327Z,8.80
2019-02-21T19:09:32.887Z,8.80
2019-02-21T19:12:02.485Z,8.80
2019-02-21T19:14:32.055Z,8.80
2019-02-21T19:17:04.639Z,8.70
2019-02-21T19:19:34.584Z,8.60
2019-02-21T19:22:03.743Z,8.50
2019-02-21T19:24:32.908Z,8.50
2019-02-21T19:27:02.054Z,8.50
2019-02-21T19:29:34.346Z,8.40
2019-02-21T19:32:04.584Z,8.40
2019-02-21T19:34:34.040Z,8.30
2019-02-21T19:37:03.378Z,8.20
2019-02-21T19:39:32.776Z,8.20
2019-02-21T19:42:04.944Z,8.30
2019-02-21T19:44:48.470Z,8.20
2019-02-21T19:47:18.265Z,8.20
2019-02-21T19:49:48.083Z,8.20
2019-02-21T19:52:17.704Z,8.10
2019-02-21T19:54:47.149Z,8.10
2019-02-21T19:57:16.924Z,8.10
2019-02-21T19:59:46.377Z,8.10
2019-02-21T20:02:15.815Z,8.00
2019-02-21T20:04:45.543Z,8.00
2019-02-21T20:07:15.065Z,8.00
2019-02-21T20:09:44.831Z,8.00
2019-02-21T20:12:14.421Z,8.00
2019-02-21T20:14:43.918Z,8.00
2019-02-21T20:17:13.614Z,7.90
2019-02-21T20:19:44.670Z,7.90
2019-02-21T20:22:15.979Z,7.80
2019-02-21T20:24:45.420Z,7.80
2019-02-21T20:27:14.786Z,7.60
2019-02-21T20:29:44.139Z,7.60
2019-02-21T20:32:13.581Z,7.50
2019-02-21T20:34:45.932Z,7.50
2019-02-21T20:37:15.300Z,7.40
2019-02-21T20:39:50.868Z,7.40
2019-02-21T20:42:20.455Z,7.40
2019-02-21T20:44:52.484Z,7.50
2019-02-21T20:47:22.079Z,7.40
2019-02-21T20:49:51.491Z,7.30
2019-02-21T20:52:20.716Z,7.20
2019-02-21T20:54:49.876Z,7.30
2019-02-21T20:57:19.251Z,7.30
2019-02-21T20:59:49.047Z,7.40
2019-02-21T21:02:18.672Z,7.40
2019-02-21T21:04:55.580Z,7.40
2019-02-21T21:07:25.533Z,7.40
2019-02-21T21:09:56.891Z,7.40
2019-02-21T21:12:27.010Z,7.40
2019-02-21T21:14:56.160Z,7.40
2019-02-21T21:17:25.396Z,7.40
2019-02-21T21:19:54.540Z,7.40
2019-02-21T21:22:27.750Z,7.30
2019-02-21T21:24:58.878Z,7.30
2019-02-21T21:27:28.044Z,7.30
2019-02-21T21:29:57.514Z,7.30
2019-02-21T21:32:26.990Z,7.30
2019-02-21T21:34:56.271Z,7.20
2019-02-21T21:37:25.745Z,7.20
2019-02-21T21:39:55.112Z,7.20
2019-02-21T21:42:24.412Z,7.20
2019-02-21T21:44:53.584Z,7.20
2019-02-21T21:47:22.902Z,7.20
2019-02-21T21:49:52.141Z,7.20
2019-02-21T21:52:21.435Z,7.20
2019-02-21T21:54:50.904Z,7.20
2019-02-21T21:57:20.462Z,7.20
2019-02-21T21:59:49.808Z,7.20
2019-02-21T22:02:19.148Z,7.10
2019-02-21T22:04:48.467Z,7.20
2019-02-21T22:07:17.826Z,7.10
2019-02-21T22:09:47.420Z,7.20
2019-02-21T22:12:16.867Z,7.20
2019-02-21T22:14:46.429Z,7.10
2019-02-21T22:17:16.154Z,7.10
2019-02-21T22:19:45.797Z,7.10
2019-02-21T22:22:15.253Z,7.10
2019-02-21T22:24:44.672Z,7.10
2019-02-21T22:27:13.864Z,7.10
2019-02-21T22:29:43.326Z,7.10
2019-02-21T22:32:12.827Z,7.10
2019-02-21T22:34:42.383Z,7.10
2019-02-21T22:37:11.844Z,7.10
2019-02-21T22:39:41.508Z,7.00
2019-02-21T22:42:10.900Z,7.00
2019-02-21T22:44:40.459Z,7.00
2019-02-21T22:47:09.903Z,7.00
2019-02-21T22:49:39.404Z,7.00
2019-02-21T22:52:08.741Z,7.00
2019-02-21T22:54:38.425Z,6.90
2019-02-21T22:57:07.975Z,6.90
2019-02-21T22:59:37.482Z,6.90
2019-02-21T23:02:06.666Z,6.80
2019-02-21T23:05:11.924Z,6.90
2019-02-21T23:07:46.809Z,6.90
2019-02-21T23:10:16.519Z,6.90
2019-02-21T23:12:46.118Z,6.80
2019-02-21T23:15:15.819Z,6.80
2019-02-21T23:17:45.240Z,6.80
2019-02-21T23:20:14.889Z,6.80
2019-02-21T23:22:44.447Z,6.80
2019-02-21T23:25:13.977Z,6.80
2019-02-21T23:27:43.466Z,6.70
2019-02-21T23:30:14.080Z,6.70
2019-02-21T23:32:44.812Z,6.70
2019-02-21T23:35:20.055Z,6.70
2019-02-21T23:37:49.697Z,6.70
2019-02-21T23:40:19.566Z,6.70
2019-02-21T23:42:49.064Z,6.70
2019-02-21T23:45:18.720Z,6.70
2019-02-21T23:47:49.935Z,6.70
2019-02-21T23:50:19.618Z,6.70
2019-02-21T23:52:49.455Z,6.70
2019-02-21T23:55:18.648Z,6.70
2019-02-21T23:57:47.827Z,6.70
